createdAt,value
2019-04-26T00:00:33.832Z,30.93
2019-04-26T00:03:04.375Z,29.23
2019-04-26T00:05:34.975Z,34.17
2019-04-26T00:08:03.691Z,29.60
2019-04-26T00:10:48.315Z,31.10
2019-04-26T00:13:35.331Z,32.37
2019-04-26T00:16:12.677Z,32.50
2019-04-26T00:18:41.895Z,31.03
2019-04-26T00:21:11.696Z,33.17
2019-04-26T00:23:40.974Z,30.93
2019-04-26T00:26:11.070Z,33.03
2019-04-26T00:28:41.269Z,29.53
2019-04-26T00:31:11.428Z,31.67
2019-04-26T00:33:40.397Z,34.70
2019-04-26T00:36:09.404Z,30.60
2019-04-26T00:38:38.162Z,29.73
2019-04-26T00:41:07.710Z,30.40
2019-04-26T00:43:36.667Z,38.83
2019-04-26T00:46:06.903Z,31.17
2019-04-26T00:48:40.501Z,34.20
2019-04-26T00:51:10.552Z,29.27
2019-04-26T00:53:41.538Z,29.07
2019-04-26T00:56:11.578Z,31.47
2019-04-26T00:58:41.126Z,30.03
2019-04-26T01:01:09.987Z,29.33
2019-04-26T01:03:38.884Z,30.17
2019-04-26T01:06:10.720Z,30.13
2019-04-26T01:08:39.908Z,31.80
2019-04-26T01:11:09.164Z,35.60
2019-04-26T01:13:38.847Z,31.70
2019-04-26T01:16:08.053Z,31.23
2019-04-26T01:18:37.013Z,37.80
2019-04-26T01:21:08.490Z,30.63
2019-04-26T01:23:40.179Z,29.83
2019-04-26T01:26:17.715Z,31.97
2019-04-26T01:28:52.662Z,31.23
2019-04-26T01:31:21.940Z,30.33
2019-04-26T01:33:51.715Z,31.87
2019-04-26T01:36:22.244Z,29.73
2019-04-26T01:38:53.899Z,34.30
2019-04-26T01:41:32.863Z,31.97
2019-04-26T01:44:08.367Z,31.30
2019-04-26T01:46:43.156Z,30.47
2019-04-26T01:49:13.847Z,30.87
2019-04-26T01:51:48.943Z,30.10
2019-04-26T01:54:22.494Z,31.73
2019-04-26T01:56:55.003Z,33.00
2019-04-26T01:59:25.287Z,32.63
2019-04-26T02:02:13.393Z,28.93
2019-04-26T02:04:46.078Z,31.30
2019-04-26T02:07:17.339Z,31.50
2019-04-26T02:09:46.418Z,30.40
2019-04-26T02:12:15.283Z,32.80
2019-04-26T02:14:44.519Z,30.63
2019-04-26T02:17:13.348Z,31.33
2019-04-26T02:19:42.233Z,30.87
2019-04-26T02:22:45.694Z,31.50
2019-04-26T02:25:14.460Z,30.57
2019-04-26T02:27:43.868Z,32.43
2019-04-26T02:30:12.781Z,29.77
2019-04-26T02:32:41.843Z,35.37
2019-04-26T02:35:11.417Z,32.60
2019-04-26T02:37:41.056Z,30.90
2019-04-26T02:40:14.706Z,33.20
2019-04-26T02:42:44.074Z,30.77
2019-04-26T02:46:03.533Z,38.37
2019-04-26T02:48:58.037Z,40.50
2019-04-26T02:51:34.586Z,35.77
2019-04-26T02:54:10.297Z,29.40
2019-04-26T02:56:41.790Z,30.03
2019-04-26T02:59:40.115Z,46.17
2019-04-26T03:02:21.012Z,28.40
2019-04-26T03:04:52.717Z,30.73
2019-04-26T03:07:44.751Z,29.20
2019-04-26T03:10:14.184Z,30.00
2019-04-26T03:12:45.184Z,31.03
2019-04-26T03:15:42.549Z,31.07
2019-04-26T03:18:38.836Z,32.90
2019-04-26T03:21:16.176Z,30.40
2019-04-26T03:23:58.595Z,32.87
2019-04-26T03:26:37.521Z,35.53
2019-04-26T03:29:21.100Z,34.93
2019-04-26T03:32:01.942Z,35.43
2019-04-26T03:34:45.584Z,44.53
2019-04-26T03:37:45.759Z,34.37
2019-04-26T03:40:37.895Z,31.33
2019-04-26T03:43:38.470Z,27.13
2019-04-26T03:46:35.516Z,43.20
2019-04-26T03:49:46.934Z,27.43
2019-04-26T03:53:07.035Z,29.03
2019-04-26T03:56:16.135Z,27.27
2019-04-26T03:59:02.517Z,29.00
2019-04-26T04:01:39.437Z,28.50
2019-04-26T04:04:27.919Z,30.23
2019-04-26T04:07:04.792Z,29.73
2019-04-26T04:09:31.572Z,33.03
2019-04-26T04:12:21.740Z,29.90
2019-04-26T04:15:00.555Z,44.07
2019-04-26T04:17:45.368Z,33.23
2019-04-26T04:20:40.831Z,30.07
2019-04-26T04:23:53.174Z,32.30
2019-04-26T04:26:32.019Z,27.47
2019-04-26T04:29:39.031Z,29.80
2019-04-26T04:31:57.298Z,32.57
2019-04-26T04:34:36.808Z,30.30
2019-04-26T04:37:09.023Z,29.03
2019-04-26T04:39:49.994Z,27.40
2019-04-26T04:42:35.983Z,29.67
2019-04-26T04:45:53.441Z,27.47
2019-04-26T04:48:44.596Z,29.83
2019-04-26T04:51:46.227Z,37.13
2019-04-26T04:54:24.606Z,27.67
2019-04-26T04:57:33.492Z,28.53
2019-04-26T05:00:26.573Z,27.63
2019-04-26T05:03:47.325Z,35.00
2019-04-26T05:06:53.230Z,31.23
2019-04-26T05:09:33.793Z,35.07
2019-04-26T05:12:15.709Z,29.27
2019-04-26T05:15:52.814Z,39.47
2019-04-26T05:18:52.714Z,32.37
2019-04-26T05:21:48.626Z,47.00
2019-04-26T05:24:45.735Z,31.40
2019-04-26T05:27:57.253Z,42.73
2019-04-26T05:31:17.824Z,37.37
2019-04-26T05:34:44.569Z,28.93
2019-04-26T05:37:29.904Z,33.73
2019-04-26T05:40:35.339Z,29.03
2019-04-26T05:43:49.183Z,30.33
2019-04-26T05:47:18.369Z,29.87
2019-04-26T05:51:00.478Z,33.33
2019-04-26T05:54:13.372Z,38.43
2019-04-26T05:57:06.277Z,34.90
2019-04-26T05:59:56.755Z,36.83
2019-04-26T06:02:59.400Z,42.00
2019-04-26T06:06:06.325Z,31.30
2019-04-26T06:09:23.791Z,35.03
2019-04-26T06:12:02.983Z,32.80
2019-04-26T06:15:04.735Z,29.33
2019-04-26T06:18:16.760Z,32.33
2019-04-26T06:21:05.837Z,32.20
2019-04-26T06:23:57.845Z,30.83
2019-04-26T06:27:09.108Z,34.47
2019-04-26T06:29:44.388Z,30.63
2019-04-26T06:32:22.468Z,30.73
2019-04-26T06:35:20.114Z,30.90
2019-04-26T06:38:57.995Z,28.87
2019-04-26T06:42:14.729Z,31.57
2019-04-26T06:45:43.732Z,35.63
2019-04-26T06:48:27.343Z,41.60
2019-04-26T06:51:08.616Z,35.20
2019-04-26T06:53:58.826Z,33.27
2019-04-26T06:57:12.225Z,39.40
2019-04-26T07:00:02.339Z,32.33
2019-04-26T07:03:03.608Z,35.50
2019-04-26T07:05:36.390Z,32.10
2019-04-26T07:08:42.496Z,48.67
2019-04-26T07:12:12.549Z,53.20
2019-04-26T07:15:28.846Z,32.60
2019-04-26T07:19:03.495Z,35.03
2019-04-26T07:22:35.243Z,30.77
2019-04-26T07:25:24.529Z,45.17
2019-04-26T07:28:10.806Z,30.13
2019-04-26T07:30:57.124Z,30.63
2019-04-26T07:33:44.442Z,33.37
2019-04-26T07:36:34.491Z,28.57
2019-04-26T07:39:26.863Z,33.93
2019-04-26T07:42:58.709Z,33.43
2019-04-26T07:46:04.019Z,31.10
2019-04-26T07:49:10.267Z,29.77
2019-04-26T07:52:12.945Z,30.40
2019-04-26T07:55:22.886Z,33.20
2019-04-26T07:58:40.955Z,30.70
2019-04-26T08:01:19.547Z,30.60
2019-04-26T08:03:59.129Z,32.40
2019-04-26T08:06:57.574Z,29.63
2019-04-26T08:09:28.406Z,38.53
2019-04-26T08:12:04.473Z,28.83
2019-04-26T08:14:44.066Z,29.87
2019-04-26T08:17:30.624Z,29.40
2019-04-26T08:20:12.924Z,30.30
2019-04-26T08:22:47.191Z,35.63
2019-04-26T08:25:18.919Z,29.53
2019-04-26T08:27:49.303Z,29.80
2019-04-26T08:30:19.792Z,31.53
2019-04-26T08:32:57.386Z,30.93
2019-04-26T08:35:30.098Z,37.60
2019-04-26T08:38:13.521Z,32.20
2019-04-26T08:40:39.594Z,33.03
2019-04-26T08:43:30.556Z,29.50
2019-04-26T08:46:18.687Z,29.70
2019-04-26T08:49:11.129Z,27.20
2019-04-26T08:51:42.236Z,29.50
2019-04-26T08:54:18.943Z,28.13
2019-04-26T08:56:51.973Z,27.33
2019-04-26T08:59:25.416Z,28.70
2019-04-26T09:02:06.478Z,30.03
2019-04-26T09:04:49.779Z,28.50
2019-04-26T09:07:25.034Z,28.80
2019-04-26T09:09:57.668Z,28.20
2019-04-26T09:12:29.584Z,31.20
2019-04-26T09:15:02.950Z,27.80
2019-04-26T09:17:32.306Z,29.83
2019-04-26T09:20:07.119Z,30.57
2019-04-26T09:22:48.911Z,36.63
2019-04-26T09:25:34.489Z,28.97
2019-04-26T09:28:07.279Z,28.33
2019-04-26T09:31:07.628Z,29.10
2019-04-26T09:33:41.059Z,29.10
2019-04-26T09:36:10.119Z,26.73
2019-04-26T09:38:38.930Z,29.43
2019-04-26T09:41:08.119Z,29.60
2019-04-26T09:44:02.228Z,28.40
2019-04-26T09:46:48.517Z,28.50
2019-04-26T09:49:28.586Z,28.10
2019-04-26T09:51:57.800Z,29.60
2019-04-26T09:54:26.916Z,27.93
2019-04-26T09:56:56.280Z,27.50
2019-04-26T09:59:25.072Z,28.27
2019-04-26T10:01:55.462Z,27.60
2019-04-26T10:04:25.128Z,29.13
2019-04-26T10:06:54.068Z,28.37
2019-04-26T10:09:22.974Z,35.17
2019-04-26T10:11:59.758Z,28.90
2019-04-26T10:14:36.456Z,34.37
2019-04-26T10:17:21.954Z,33.00
2019-04-26T10:19:53.708Z,28.50
2019-04-26T10:22:24.503Z,29.57
2019-04-26T10:24:53.568Z,29.20
2019-04-26T10:27:22.800Z,28.77
2019-04-26T10:29:51.691Z,44.83
2019-04-26T10:32:21.794Z,27.20
2019-04-26T10:34:51.587Z,28.27
2019-04-26T10:37:20.744Z,45.80
2019-04-26T10:39:49.619Z,28.73
2019-04-26T10:42:18.606Z,34.50
2019-04-26T10:44:47.791Z,27.00
2019-04-26T10:47:17.044Z,28.13
2019-04-26T10:49:47.392Z,28.23
2019-04-26T10:52:33.513Z,29.47
2019-04-26T10:55:20.417Z,29.40
2019-04-26T10:57:50.764Z,36.63
2019-04-26T11:00:29.470Z,27.43
2019-04-26T11:03:00.120Z,26.13
2019-04-26T11:05:29.228Z,28.23
2019-04-26T11:08:17.830Z,28.17
2019-04-26T11:10:48.723Z,28.47
2019-04-26T11:13:18.309Z,28.77
2019-04-26T11:15:47.435Z,28.53
2019-04-26T11:18:19.790Z,28.77
2019-04-26T11:20:46.960Z,27.37
2019-04-26T11:23:15.856Z,27.57
2019-04-26T11:25:44.872Z,27.40
2019-04-26T11:28:17.240Z,29.90
2019-04-26T11:30:48.050Z,26.87
2019-04-26T11:33:15.410Z,28.10
2019-04-26T11:35:44.323Z,26.80
2019-04-26T11:38:13.156Z,28.73
2019-04-26T11:40:44.324Z,26.57
2019-04-26T11:43:15.768Z,27.07
2019-04-26T11:45:45.374Z,29.93
2019-04-26T11:48:14.486Z,37.13
2019-04-26T11:50:43.484Z,27.00
2019-04-26T11:53:12.503Z,27.27
2019-04-26T11:55:41.351Z,27.67
2019-04-26T11:58:10.287Z,26.53
2019-04-26T12:00:43.725Z,28.50
2019-04-26T12:03:12.780Z,36.47
2019-04-26T12:05:50.240Z,25.07
2019-04-26T12:08:24.254Z,27.57
2019-04-26T12:10:53.568Z,27.97
2019-04-26T12:13:24.964Z,28.10
2019-04-26T12:15:54.399Z,27.40
2019-04-26T12:18:23.917Z,29.70
2019-04-26T12:20:53.027Z,29.30
2019-04-26T12:23:21.931Z,27.70
2019-04-26T12:26:09.993Z,27.00
2019-04-26T12:28:40.010Z,27.20
2019-04-26T12:31:09.796Z,28.97
2019-04-26T12:33:39.160Z,28.03
2019-04-26T12:36:13.280Z,26.50
2019-04-26T12:38:40.533Z,27.00
2019-04-26T12:41:11.524Z,26.47
2019-04-26T12:43:39.935Z,26.63
2019-04-26T12:46:31.855Z,27.30
2019-04-26T12:48:59.606Z,28.27
2019-04-26T12:51:28.590Z,26.00
2019-04-26T12:53:57.487Z,26.00
2019-04-26T12:56:26.731Z,27.50
2019-04-26T12:58:56.856Z,28.70
2019-04-26T13:01:26.231Z,28.37
2019-04-26T13:04:05.340Z,27.20
2019-04-26T13:06:37.172Z,28.23
2019-04-26T13:09:13.662Z,31.03
2019-04-26T13:12:07.827Z,30.23
2019-04-26T13:14:55.049Z,29.00
2019-04-26T13:17:31.322Z,29.63
2019-04-26T13:19:59.042Z,29.77
2019-04-26T13:22:27.823Z,31.33
2019-04-26T13:24:56.785Z,29.53
2019-04-26T13:27:25.902Z,30.03
2019-04-26T13:30:02.388Z,30.33
2019-04-26T13:32:25.567Z,31.00
2019-04-26T13:34:54.836Z,29.50
2019-04-26T13:37:24.033Z,29.37
2019-04-26T13:39:55.147Z,30.57
2019-04-26T13:42:23.535Z,28.60
2019-04-26T13:45:00.816Z,29.33
2019-04-26T13:48:07.259Z,31.07
2019-04-26T13:50:39.875Z,29.33
2019-04-26T13:53:08.708Z,29.43
2019-04-26T13:55:37.769Z,27.97
2019-04-26T13:58:06.847Z,35.67
2019-04-26T14:00:35.877Z,29.87
2019-04-26T14:03:04.989Z,29.50
2019-04-26T14:05:33.808Z,28.70
2019-04-26T14:08:03.427Z,28.07
2019-04-26T14:10:32.339Z,28.87
2019-04-26T14:13:01.194Z,28.90
2019-04-26T14:15:30.436Z,37.90
2019-04-26T14:18:00.337Z,27.40
2019-04-26T14:20:32.436Z,26.87
2019-04-26T14:23:20.377Z,28.40
2019-04-26T14:25:56.275Z,28.57
2019-04-26T14:28:25.261Z,27.53
2019-04-26T14:30:54.405Z,28.63
2019-04-26T14:33:26.958Z,27.27
2019-04-26T14:35:54.168Z,29.40
2019-04-26T14:38:27.894Z,27.07
2019-04-26T14:41:03.792Z,28.20
2019-04-26T14:43:24.253Z,28.83
2019-04-26T14:45:56.161Z,26.87
2019-04-26T14:48:35.299Z,26.03
2019-04-26T14:51:07.497Z,26.97
2019-04-26T14:53:25.853Z,29.83
2019-04-26T14:55:55.633Z,27.10
2019-04-26T14:58:29.981Z,33.50
2019-04-26T15:00:58.842Z,27.53
2019-04-26T15:03:34.065Z,28.20
2019-04-26T15:06:23.678Z,28.27
2019-04-26T15:08:53.199Z,28.37
2019-04-26T15:11:22.923Z,26.77
2019-04-26T15:13:52.123Z,27.93
2019-04-26T15:16:23.924Z,29.97
2019-04-26T15:18:52.650Z,32.93
2019-04-26T15:21:22.865Z,28.90
2019-04-26T15:23:55.357Z,28.97
2019-04-26T15:26:29.384Z,28.77
2019-04-26T15:28:52.948Z,28.83
2019-04-26T15:31:24.878Z,29.83
2019-04-26T15:33:52.822Z,30.47
2019-04-26T15:36:23.229Z,26.80
2019-04-26T15:38:52.914Z,27.23
2019-04-26T15:41:56.264Z,27.30
2019-04-26T15:44:49.124Z,36.23
2019-04-26T15:47:42.869Z,27.83
2019-04-26T15:50:19.926Z,32.70
2019-04-26T15:52:49.439Z,27.07
2019-04-26T15:55:18.267Z,29.20
2019-04-26T15:57:47.068Z,28.20
2019-04-26T16:00:16.322Z,28.30
2019-04-26T16:02:45.423Z,27.70
2019-04-26T16:05:16.607Z,28.67
2019-04-26T16:07:44.843Z,29.33
2019-04-26T16:10:13.876Z,30.77
2019-04-26T16:12:42.672Z,28.27
2019-04-26T16:15:14.724Z,32.07
2019-04-26T16:17:42.259Z,44.90
2019-04-26T16:20:11.927Z,30.77
2019-04-26T16:22:42.970Z,28.93
2019-04-26T16:25:13.786Z,38.23
2019-04-26T16:27:43.094Z,29.37
2019-04-26T16:30:32.988Z,32.90
2019-04-26T16:33:06.843Z,30.03
2019-04-26T16:35:36.083Z,29.23
2019-04-26T16:38:22.980Z,33.67
2019-04-26T16:43:36.395Z,28.43
2019-04-26T16:45:54.259Z,30.93
2019-04-26T16:48:25.677Z,29.00
2019-04-26T16:50:54.033Z,31.10
2019-04-26T16:53:39.755Z,31.83
2019-04-26T16:55:53.628Z,30.47
2019-04-26T16:58:24.656Z,30.20
2019-04-26T17:00:57.805Z,32.10
2019-04-26T17:03:26.221Z,33.00
2019-04-26T17:06:04.748Z,35.10
2019-04-26T17:08:25.011Z,37.33
2019-04-26T17:09:51.186Z,28.63
2019-04-26T17:10:56.781Z,34.50
2019-04-26T17:13:29.813Z,33.60
2019-04-26T17:15:58.300Z,34.77
2019-04-26T17:18:27.032Z,38.00
2019-04-26T17:20:56.142Z,37.23
2019-04-26T17:23:35.010Z,36.03
2019-04-26T17:26:13.242Z,35.83
2019-04-26T17:28:42.952Z,51.43
2019-04-26T17:31:12.486Z,38.70
2019-04-26T17:33:41.496Z,41.10
2019-04-26T17:36:11.438Z,47.73
2019-04-26T17:38:42.068Z,45.30
2019-04-26T17:41:13.439Z,41.40
2019-04-26T17:43:46.887Z,34.20
2019-04-26T17:46:14.543Z,35.37
2019-04-26T17:48:44.869Z,39.10
2019-04-26T17:51:18.902Z,35.73
2019-04-26T17:53:48.008Z,36.60
2019-04-26T17:56:14.949Z,44.03
2019-04-26T17:58:52.428Z,42.10
2019-04-26T18:01:33.499Z,37.80
2019-04-26T18:03:51.306Z,45.77
2019-04-26T18:06:28.840Z,38.60
2019-04-26T18:08:54.535Z,35.10
2019-04-26T18:11:20.204Z,42.60
2019-04-26T18:13:51.161Z,36.33
2019-04-26T18:16:22.425Z,41.30
2019-04-26T18:19:05.266Z,41.00
2019-04-26T18:21:56.491Z,43.67
2019-04-26T18:24:23.420Z,36.27
2019-04-26T18:26:59.113Z,45.50
2019-04-26T18:29:29.157Z,50.37
2019-04-26T18:31:53.947Z,42.50
2019-04-26T18:34:23.223Z,52.57
2019-04-26T18:36:52.139Z,49.87
2019-04-26T18:39:22.748Z,54.13
2019-04-26T18:41:51.588Z,44.00
2019-04-26T18:44:20.374Z,56.47
2019-04-26T18:46:54.397Z,54.80
2019-04-26T18:49:26.946Z,52.53
2019-04-26T18:51:54.661Z,49.10
2019-04-26T18:54:43.684Z,52.07
2019-04-26T18:57:15.542Z,46.57
2019-04-26T18:59:44.717Z,57.50
2019-04-26T19:02:18.615Z,52.63
2019-04-26T19:04:48.326Z,66.83
2019-04-26T19:07:31.031Z,70.87
2019-04-26T19:09:58.784Z,67.00
2019-04-26T19:12:23.352Z,57.20
2019-04-26T19:15:09.084Z,52.67
2019-04-26T19:17:56.058Z,49.33
2019-04-26T19:20:32.366Z,41.63
2019-04-26T19:23:03.074Z,41.00
2019-04-26T19:25:35.637Z,37.20
2019-04-26T19:28:07.993Z,40.13
2019-04-26T19:30:34.987Z,26.60
2019-04-26T19:33:04.430Z,27.77
2019-04-26T19:35:33.468Z,31.80
2019-04-26T19:38:03.267Z,32.03
2019-04-26T19:40:32.357Z,29.20
2019-04-26T19:43:03.277Z,26.47
2019-04-26T19:45:52.035Z,26.33
2019-04-26T19:48:31.372Z,22.33
2019-04-26T19:51:12.132Z,19.33
2019-04-26T19:53:51.147Z,14.77
2019-04-26T19:56:27.332Z,14.80
2019-04-26T19:58:57.456Z,14.43
2019-04-26T20:01:24.876Z,16.53
2019-04-26T20:03:55.430Z,14.43
2019-04-26T20:06:26.741Z,13.53
2019-04-26T20:08:54.966Z,14.67
2019-04-26T20:11:23.836Z,15.47
2019-04-26T20:13:55.153Z,14.67
2019-04-26T20:16:25.786Z,13.97
2019-04-26T20:18:54.411Z,19.47
2019-04-26T20:21:23.293Z,14.87
2019-04-26T20:23:54.367Z,18.80
2019-04-26T20:26:23.026Z,14.07
2019-04-26T20:28:52.027Z,14.53
2019-04-26T20:31:28.268Z,15.30
2019-04-26T20:33:57.121Z,15.03
2019-04-26T20:36:26.383Z,21.40
2019-04-26T20:38:55.375Z,15.03
2019-04-26T20:41:24.221Z,13.10
2019-04-26T20:44:05.142Z,13.27
2019-04-26T20:46:25.100Z,15.87
2019-04-26T20:48:54.551Z,15.10
2019-04-26T20:51:24.149Z,17.00
2019-04-26T20:53:53.248Z,17.63
2019-04-26T20:56:22.622Z,19.27
2019-04-26T20:58:52.257Z,15.57
2019-04-26T21:01:22.389Z,14.90
2019-04-26T21:03:51.792Z,16.67
2019-04-26T21:06:22.267Z,15.00
2019-04-26T21:08:52.217Z,13.87
2019-04-26T21:11:22.434Z,15.57
2019-04-26T21:13:51.897Z,15.33
2019-04-26T21:16:22.080Z,14.03
2019-04-26T21:18:52.406Z,14.13
2019-04-26T21:21:21.788Z,16.67
2019-04-26T21:23:51.927Z,14.60
2019-04-26T21:26:32.435Z,15.00
2019-04-26T21:29:20.583Z,15.33
2019-04-26T21:31:59.394Z,15.37
2019-04-26T21:34:34.494Z,15.50
2019-04-26T21:37:17.325Z,13.67
2019-04-26T21:40:12.050Z,13.80
2019-04-26T21:42:43.368Z,15.30
2019-04-26T21:45:11.688Z,14.03
2019-04-26T21:47:40.521Z,14.27
2019-04-26T21:50:09.936Z,14.80
2019-04-26T21:52:38.812Z,13.63
2019-04-26T21:55:07.658Z,13.20
2019-04-26T21:57:36.518Z,17.53
2019-04-26T22:00:09.232Z,14.53
2019-04-26T22:02:38.096Z,16.07
2019-04-26T22:05:08.073Z,15.73
2019-04-26T22:07:39.394Z,16.63
2019-04-26T22:10:18.852Z,17.77
2019-04-26T22:12:47.659Z,18.13
2019-04-26T22:15:29.635Z,18.10
2019-04-26T22:18:03.133Z,17.77
2019-04-26T22:20:39.985Z,17.50
2019-04-26T22:23:25.645Z,21.17
2019-04-26T22:25:56.040Z,21.73
2019-04-26T22:28:26.844Z,19.40
2019-04-26T22:30:59.333Z,18.80
2019-04-26T22:33:27.350Z,22.87
2019-04-26T22:35:58.583Z,21.53
2019-04-26T22:38:27.512Z,21.83
2019-04-26T22:40:56.552Z,21.70
2019-04-26T22:43:41.740Z,24.00
2019-04-26T22:46:44.258Z,18.23
2019-04-26T22:49:05.664Z,19.10
2019-04-26T22:51:37.198Z,17.43
2019-04-26T22:54:06.225Z,19.67
2019-04-26T22:56:37.102Z,21.67
2019-04-26T22:59:08.026Z,19.00
2019-04-26T23:01:39.098Z,16.93
2019-04-26T23:04:07.261Z,18.00
2019-04-26T23:06:36.664Z,19.53
2019-04-26T23:09:07.360Z,17.43
2019-04-26T23:11:45.365Z,19.27
2019-04-26T23:14:19.121Z,24.03
2019-04-26T23:17:18.978Z,17.80
2019-04-26T23:19:54.216Z,17.03
2019-04-26T23:22:24.629Z,19.67
2019-04-26T23:24:56.682Z,17.17
2019-04-26T23:27:23.776Z,16.43
2019-04-26T23:29:55.092Z,18.27
2019-04-26T23:32:23.501Z,16.90
2019-04-26T23:34:53.534Z,16.50
2019-04-26T23:37:24.267Z,16.70
2019-04-26T23:39:53.700Z,16.10
2019-04-26T23:42:23.269Z,16.57
2019-04-26T23:44:53.211Z,17.80
2019-04-26T23:47:23.716Z,15.77
2019-04-26T23:49:53.867Z,21.90
2019-04-26T23:52:24.468Z,16.37
2019-04-26T23:54:53.968Z,14.13
2019-04-26T23:57:22.808Z,16.40
2019-04-26T23:59:58.610Z,16.23
